createdAt,value
2019-05-26T00:03:48.356Z,8.93
2019-05-26T00:06:20.670Z,6.47
2019-05-26T00:09:04.822Z,7.20
2019-05-26T00:11:49.401Z,7.00
2019-05-26T00:14:33.228Z,5.93
2019-05-26T00:17:17.673Z,9.77
2019-05-26T00:20:01.589Z,7.67
2019-05-26T00:22:45.860Z,7.72
2019-05-26T00:25:29.696Z,8.50
2019-05-26T00:28:14.975Z,8.40
2019-05-26T00:30:59.715Z,6.93
2019-05-26T00:33:44.017Z,6.93
2019-05-26T00:36:27.689Z,6.37
2019-05-26T00:39:13.585Z,6.55
2019-05-26T00:41:57.516Z,8.20
2019-05-26T00:44:31.172Z,7.26
2019-05-26T00:47:15.232Z,6.87
2019-05-26T00:49:58.992Z,8.90
2019-05-26T00:52:43.714Z,8.37
2019-05-26T00:55:27.769Z,6.73
2019-05-26T00:58:12.384Z,7.57
2019-05-26T01:00:57.899Z,8.30
2019-05-26T01:03:42.058Z,7.65
2019-05-26T01:06:25.746Z,6.80
2019-05-26T01:09:10.741Z,7.30
2019-05-26T01:11:55.233Z,7.70
2019-05-26T01:14:40.912Z,8.83
2019-05-26T01:17:26.166Z,7.60
2019-05-26T01:20:09.739Z,8.03
2019-05-26T01:22:54.111Z,6.37
2019-05-26T01:25:38.553Z,7.10
2019-05-26T01:28:10.836Z,6.77
2019-05-26T01:30:55.492Z,6.97
2019-05-26T01:33:39.033Z,7.17
2019-05-26T01:36:23.396Z,7.47
2019-05-26T01:39:09.000Z,6.72
2019-05-26T01:41:41.415Z,7.17
2019-05-26T01:44:25.687Z,9.65
2019-05-26T01:47:10.652Z,8.83
2019-05-26T01:49:54.413Z,7.87
2019-05-26T01:52:38.755Z,7.37
2019-05-26T01:55:22.828Z,7.20
2019-05-26T01:58:07.475Z,9.57
2019-05-26T02:00:51.552Z,8.37
2019-05-26T02:03:36.071Z,7.80
2019-05-26T02:06:20.793Z,7.90
2019-05-26T02:09:07.454Z,7.03
2019-05-26T02:11:51.939Z,7.28
2019-05-26T02:14:35.512Z,7.77
2019-05-26T02:17:19.366Z,7.80
2019-05-26T02:20:04.049Z,7.40
2019-05-26T02:22:36.460Z,6.77
2019-05-26T02:25:20.729Z,8.37
2019-05-26T02:28:06.452Z,9.60
2019-05-26T02:30:50.820Z,8.70
2019-05-26T02:33:34.342Z,7.72
2019-05-26T02:36:18.289Z,7.53
2019-05-26T02:39:03.466Z,7.43
2019-05-26T02:41:49.839Z,8.17
2019-05-26T02:44:33.733Z,7.57
2019-05-26T02:47:06.160Z,8.07
2019-05-26T02:49:50.742Z,8.77
2019-05-26T02:52:35.142Z,9.97
2019-05-26T02:55:19.832Z,8.60
2019-05-26T02:58:04.815Z,10.27
2019-05-26T03:00:49.334Z,8.37
2019-05-26T03:03:33.437Z,10.33
2019-05-26T03:09:23.545Z,10.07
2019-05-26T03:12:07.485Z,8.63
2019-05-26T03:14:52.734Z,9.43
2019-05-26T03:17:37.255Z,9.60
2019-05-26T03:20:21.759Z,10.57
2019-05-26T03:23:05.786Z,9.70
2019-05-26T03:25:49.828Z,12.87
2019-05-26T03:28:33.900Z,8.80
2019-05-26T03:31:20.317Z,8.73
2019-05-26T03:34:05.159Z,8.87
2019-05-26T03:36:49.646Z,9.20
2019-05-26T03:39:44.510Z,9.75
2019-05-26T03:42:20.728Z,11.20
2019-05-26T03:45:05.389Z,12.77
2019-05-26T03:47:50.605Z,9.50
2019-05-26T03:50:35.086Z,10.83
2019-05-26T03:53:21.155Z,11.03
2019-05-26T03:56:04.761Z,11.03
2019-05-26T03:58:50.948Z,9.35
2019-05-26T04:01:35.595Z,9.07
2019-05-26T04:04:08.388Z,11.60
2019-05-26T04:06:52.478Z,9.93
2019-05-26T04:09:36.921Z,8.73
2019-05-26T04:12:22.940Z,8.90
2019-05-26T04:15:06.719Z,10.10
2019-05-26T04:17:51.353Z,11.50
2019-05-26T04:20:35.351Z,10.97
2019-05-26T04:23:08.663Z,10.82
2019-05-26T04:26:00.587Z,9.67
2019-05-26T04:28:44.440Z,11.67
2019-05-26T04:31:28.674Z,11.12
2019-05-26T04:34:12.568Z,13.35
2019-05-26T04:36:56.968Z,10.53
2019-05-26T04:39:30.071Z,9.57
2019-05-26T04:42:14.915Z,10.87
2019-05-26T04:44:59.742Z,10.77
2019-05-26T04:47:43.960Z,10.93
2019-05-26T04:50:27.881Z,11.07
2019-05-26T04:53:11.284Z,10.50
2019-05-26T04:55:54.653Z,11.80
2019-05-26T04:58:38.981Z,11.40
2019-05-26T05:01:23.032Z,10.60
2019-05-26T05:04:07.589Z,11.10
2019-05-26T05:06:52.602Z,13.13
2019-05-26T05:09:36.997Z,10.30
2019-05-26T05:12:09.915Z,9.63
2019-05-26T05:14:42.457Z,11.87
2019-05-26T05:17:26.238Z,11.60
2019-05-26T05:20:10.395Z,9.77
2019-05-26T05:22:54.872Z,9.83
2019-05-26T05:25:38.662Z,10.33
2019-05-26T05:28:23.166Z,12.45
2019-05-26T05:31:06.695Z,13.43
2019-05-26T05:33:40.256Z,13.50
2019-05-26T05:36:24.120Z,12.90
2019-05-26T05:39:08.811Z,10.25
2019-05-26T05:41:53.114Z,9.97
2019-05-26T05:44:37.374Z,9.60
2019-05-26T05:47:10.518Z,9.68
2019-05-26T05:49:56.705Z,11.53
2019-05-26T05:52:41.003Z,9.13
2019-05-26T05:55:25.495Z,11.10
2019-05-26T05:58:09.725Z,9.20
2019-05-26T06:00:53.342Z,10.73
2019-05-26T06:03:37.986Z,10.58
2019-05-26T06:06:24.930Z,10.77
2019-05-26T06:09:08.456Z,12.63
2019-05-26T06:11:40.896Z,12.20
2019-05-26T06:14:25.268Z,9.93
2019-05-26T06:17:13.704Z,12.47
2019-05-26T06:20:10.424Z,13.55
2019-05-26T06:22:54.428Z,12.90
2019-05-26T06:25:38.577Z,14.90
2019-05-26T06:28:23.577Z,13.35
2019-05-26T06:31:08.372Z,14.03
2019-05-26T06:33:53.028Z,13.13
2019-05-26T06:36:37.624Z,13.00
2019-05-26T06:39:23.428Z,13.07
2019-05-26T06:42:07.649Z,12.63
2019-05-26T06:44:54.180Z,14.97
2019-05-26T06:47:38.937Z,13.40
2019-05-26T06:50:22.761Z,14.37
2019-05-26T06:53:06.828Z,12.13
2019-05-26T06:55:51.199Z,14.40
2019-05-26T06:58:34.756Z,15.03
2019-05-26T07:01:19.259Z,11.50
2019-05-26T07:04:03.809Z,14.53
2019-05-26T07:06:49.097Z,12.63
2019-05-26T07:09:32.961Z,13.17
2019-05-26T07:12:16.886Z,12.53
2019-05-26T07:15:00.852Z,12.53
2019-05-26T07:17:44.832Z,14.20
2019-05-26T07:20:29.378Z,14.37
2019-05-26T07:23:13.539Z,12.83
2019-05-26T07:25:45.968Z,12.87
2019-05-26T07:28:29.585Z,13.63
2019-05-26T07:31:13.472Z,11.73
2019-05-26T07:33:46.575Z,13.37
2019-05-26T07:36:31.493Z,12.93
2019-05-26T07:39:15.384Z,14.70
2019-05-26T07:42:10.017Z,13.97
2019-05-26T07:44:44.447Z,11.57
2019-05-26T07:47:29.205Z,12.00
2019-05-26T07:50:14.722Z,10.65
2019-05-26T07:53:01.597Z,13.17
2019-05-26T07:55:45.850Z,10.93
2019-05-26T07:58:30.346Z,12.70
2019-05-26T08:01:14.800Z,12.00
2019-05-26T08:06:42.741Z,11.07
2019-05-26T08:09:27.243Z,11.60
2019-05-26T08:12:25.020Z,15.83
2019-05-26T08:15:01.721Z,12.37
2019-05-26T08:17:45.850Z,12.43
2019-05-26T08:20:31.432Z,13.33
2019-05-26T08:23:03.788Z,12.30
2019-05-26T08:25:47.893Z,15.93
2019-05-26T08:28:31.766Z,14.73
2019-05-26T08:31:15.560Z,14.65
2019-05-26T08:33:48.076Z,13.10
2019-05-26T08:36:32.003Z,13.77
2019-05-26T08:39:16.150Z,12.17
2019-05-26T08:42:05.742Z,14.37
2019-05-26T08:44:55.312Z,12.93
2019-05-26T08:47:39.182Z,12.27
2019-05-26T08:50:23.422Z,13.53
2019-05-26T08:53:07.788Z,13.20
2019-05-26T08:55:54.480Z,15.00
2019-05-26T08:58:38.742Z,13.60
2019-05-26T09:01:22.951Z,14.53
2019-05-26T09:04:07.484Z,14.50
2019-05-26T09:06:51.421Z,13.13
2019-05-26T09:09:36.301Z,13.50
2019-05-26T09:12:21.065Z,13.40
2019-05-26T09:15:06.056Z,15.10
2019-05-26T09:17:49.983Z,13.93
2019-05-26T09:20:33.976Z,14.13
2019-05-26T09:23:18.050Z,13.80
2019-05-26T09:26:03.177Z,16.43
2019-05-26T09:28:47.556Z,17.70
2019-05-26T09:31:20.060Z,13.80
2019-05-26T09:34:03.882Z,17.27
2019-05-26T09:36:48.734Z,18.00
2019-05-26T09:39:33.102Z,14.10
2019-05-26T09:42:17.337Z,17.07
2019-05-26T09:45:03.438Z,17.65
2019-05-26T09:47:47.094Z,18.07
2019-05-26T09:53:39.135Z,16.17
2019-05-26T09:56:23.495Z,16.43
2019-05-26T09:59:08.147Z,16.30
2019-05-26T10:01:52.224Z,16.30
2019-05-26T10:04:37.652Z,18.67
2019-05-26T10:07:23.458Z,18.83
2019-05-26T10:10:08.284Z,16.67
2019-05-26T10:12:52.412Z,15.80
2019-05-26T10:15:39.058Z,16.53
2019-05-26T10:18:23.601Z,18.63
2019-05-26T10:21:07.975Z,16.75
2019-05-26T10:23:40.653Z,17.20
2019-05-26T10:26:25.035Z,18.70
2019-05-26T10:29:09.403Z,18.70
2019-05-26T10:31:53.485Z,19.00
2019-05-26T10:34:37.980Z,18.67
2019-05-26T10:37:22.810Z,20.40
2019-05-26T10:40:07.841Z,19.77
2019-05-26T10:42:52.483Z,23.60
2019-05-26T10:45:36.638Z,18.63
2019-05-26T10:48:20.884Z,22.17
2019-05-26T10:51:07.017Z,21.00
2019-05-26T10:53:52.313Z,18.87
2019-05-26T10:56:37.353Z,18.60
2019-05-26T10:59:23.461Z,18.20
2019-05-26T11:02:07.154Z,18.23
2019-05-26T11:04:51.404Z,16.53
2019-05-26T11:07:37.493Z,18.03
2019-05-26T11:10:23.504Z,16.53
2019-05-26T11:13:07.857Z,18.73
2019-05-26T11:15:51.783Z,16.97
2019-05-26T11:21:37.654Z,18.80
2019-05-26T11:24:22.135Z,18.05
2019-05-26T11:27:11.623Z,16.93
2019-05-26T11:29:53.210Z,16.37
2019-05-26T11:32:36.461Z,15.93
2019-05-26T11:35:20.164Z,15.35
2019-05-26T11:38:03.877Z,18.47
2019-05-26T11:40:52.466Z,17.53
2019-05-26T11:43:56.150Z,15.90
2019-05-26T11:46:40.740Z,16.05
2019-05-26T11:49:25.490Z,15.57
2019-05-26T11:51:57.994Z,15.60
2019-05-26T11:54:42.632Z,16.37
2019-05-26T11:57:28.311Z,16.40
2019-05-26T12:00:14.142Z,14.93
2019-05-26T12:03:00.675Z,16.20
2019-05-26T12:05:44.597Z,16.37
2019-05-26T12:08:28.737Z,15.00
2019-05-26T12:11:12.584Z,16.20
2019-05-26T12:13:56.282Z,14.60
2019-05-26T12:16:40.288Z,13.93
2019-05-26T12:19:24.892Z,14.57
2019-05-26T12:21:57.182Z,14.30
2019-05-26T12:24:41.633Z,18.07
2019-05-26T12:27:25.924Z,13.90
2019-05-26T12:30:10.682Z,14.33
2019-05-26T12:32:58.931Z,13.87
2019-05-26T12:35:51.251Z,13.73
2019-05-26T12:38:37.745Z,15.17
2019-05-26T12:41:22.219Z,13.60
2019-05-26T12:44:06.335Z,14.60
2019-05-26T12:46:50.561Z,14.67
2019-05-26T12:49:36.774Z,13.87
2019-05-26T12:52:21.067Z,14.37
2019-05-26T12:55:08.648Z,14.67
2019-05-26T12:57:51.621Z,15.47
2019-05-26T13:00:48.033Z,15.33
2019-05-26T13:03:21.633Z,13.70
2019-05-26T13:09:08.806Z,12.83
2019-05-26T13:11:53.339Z,12.23
2019-05-26T13:14:37.084Z,12.73
2019-05-26T13:17:21.202Z,11.63
2019-05-26T13:20:05.837Z,13.30
2019-05-26T13:22:49.831Z,10.65
2019-05-26T13:25:34.144Z,11.57
2019-05-26T13:28:18.640Z,13.88
2019-05-26T13:31:03.317Z,13.93
2019-05-26T13:33:47.044Z,10.67
2019-05-26T13:36:19.363Z,12.50
2019-05-26T13:38:51.938Z,9.43
2019-05-26T13:41:24.555Z,9.25
2019-05-26T13:43:58.277Z,9.03
2019-05-26T13:46:42.259Z,9.83
2019-05-26T13:49:26.657Z,9.73
2019-05-26T13:52:11.083Z,9.15
2019-05-26T13:54:55.425Z,7.77
2019-05-26T13:57:39.069Z,8.50
2019-05-26T14:00:22.935Z,9.80
2019-05-26T14:03:07.091Z,8.30
2019-05-26T14:05:51.637Z,7.13
2019-05-26T14:08:36.297Z,9.80
2019-05-26T14:11:20.908Z,6.92
2019-05-26T14:14:05.075Z,7.97
2019-05-26T14:16:49.010Z,6.80
2019-05-26T14:19:33.294Z,7.77
2019-05-26T14:22:21.606Z,9.97
2019-05-26T14:25:05.351Z,9.13
2019-05-26T14:27:49.317Z,9.67
2019-05-26T14:30:33.169Z,7.40
2019-05-26T14:33:17.883Z,7.93
2019-05-26T14:36:04.859Z,9.30
2019-05-26T14:38:48.673Z,10.40
2019-05-26T14:41:32.674Z,8.13
2019-05-26T14:44:18.239Z,8.03
2019-05-26T14:47:02.620Z,10.33
2019-05-26T14:49:47.750Z,6.97
2019-05-26T14:52:31.795Z,7.40
2019-05-26T14:55:16.559Z,8.07
2019-05-26T14:58:14.309Z,7.23
2019-05-26T15:00:46.991Z,8.85
2019-05-26T15:03:31.439Z,7.13
2019-05-26T15:06:15.884Z,7.97
2019-05-26T15:08:59.652Z,7.80
2019-05-26T15:11:44.521Z,7.83
2019-05-26T15:14:28.484Z,7.85
2019-05-26T15:17:13.893Z,7.65
2019-05-26T15:19:57.365Z,9.37
2019-05-26T15:22:42.074Z,7.60
2019-05-26T15:25:25.557Z,8.00
2019-05-26T15:28:09.184Z,8.17
2019-05-26T15:30:53.280Z,9.77
2019-05-26T15:33:37.662Z,8.90
2019-05-26T15:36:21.985Z,8.40
2019-05-26T15:39:06.701Z,7.50
2019-05-26T15:41:53.071Z,7.67
2019-05-26T15:44:37.190Z,8.37
2019-05-26T15:47:20.768Z,9.23
2019-05-26T15:50:07.615Z,7.50
2019-05-26T15:56:03.849Z,7.57
2019-05-26T15:58:51.738Z,7.60
2019-05-26T16:01:36.088Z,8.30
2019-05-26T16:04:20.521Z,9.28
2019-05-26T16:07:04.206Z,7.20
2019-05-26T16:09:36.478Z,7.20
2019-05-26T16:12:20.660Z,9.83
2019-05-26T16:15:05.608Z,7.57
2019-05-26T16:17:39.018Z,7.85
2019-05-26T16:20:36.042Z,9.03
2019-05-26T16:23:09.053Z,8.10
2019-05-26T16:26:06.429Z,8.40
2019-05-26T16:28:50.854Z,8.57
2019-05-26T16:31:36.467Z,8.60
2019-05-26T16:34:21.363Z,10.30
2019-05-26T16:37:06.236Z,9.57
2019-05-26T16:39:50.371Z,9.27
2019-05-26T16:42:34.106Z,10.43
2019-05-26T16:45:20.900Z,9.28
2019-05-26T16:48:05.662Z,11.67
2019-05-26T16:50:49.240Z,12.37
2019-05-26T16:53:33.593Z,13.10
2019-05-26T16:56:17.281Z,13.27
2019-05-26T16:59:03.667Z,13.53
2019-05-26T17:01:48.795Z,12.53
2019-05-26T17:04:32.683Z,13.33
2019-05-26T17:07:17.167Z,12.83
2019-05-26T17:10:01.062Z,13.80
2019-05-26T17:15:29.573Z,15.98
2019-05-26T17:18:13.518Z,13.55
2019-05-26T17:20:59.892Z,13.28
2019-05-26T17:23:44.762Z,12.82
2019-05-26T17:26:28.992Z,13.13
2019-05-26T17:29:12.846Z,18.07
2019-05-26T17:31:57.328Z,13.80
2019-05-26T17:34:41.781Z,15.57
2019-05-26T17:37:29.319Z,13.05
2019-05-26T17:40:13.197Z,12.97
2019-05-26T17:43:01.662Z,12.23
2019-05-26T17:45:46.106Z,14.77
2019-05-26T17:48:30.174Z,12.03
2019-05-26T17:51:13.866Z,12.30
2019-05-26T17:53:57.902Z,10.37
2019-05-26T17:56:46.057Z,10.27
2019-05-26T17:59:30.363Z,9.80
2019-05-26T18:02:14.435Z,8.60
2019-05-26T18:04:58.153Z,7.90
2019-05-26T18:07:41.998Z,7.47
2019-05-26T18:10:26.724Z,8.50
2019-05-26T18:13:11.177Z,6.87
2019-05-26T18:15:58.836Z,7.97
2019-05-26T18:18:42.443Z,7.17
2019-05-26T18:21:26.583Z,6.85
2019-05-26T18:24:10.199Z,5.67
2019-05-26T18:26:55.242Z,6.27
2019-05-26T18:29:38.965Z,4.70
2019-05-26T18:32:23.269Z,5.47
2019-05-26T18:35:08.003Z,4.20
2019-05-26T18:37:53.211Z,4.58
2019-05-26T18:40:37.178Z,3.97
2019-05-26T18:43:21.771Z,5.43
2019-05-26T18:46:05.771Z,4.00
2019-05-26T18:48:49.471Z,5.43
2019-05-26T18:51:33.036Z,6.97
2019-05-26T18:54:19.487Z,3.54
2019-05-26T18:57:03.642Z,3.85
2019-05-26T18:59:48.080Z,5.55
2019-05-26T19:02:33.710Z,4.10
2019-05-26T19:05:33.052Z,4.65
2019-05-26T19:08:26.244Z,4.20
2019-05-26T19:11:10.795Z,5.33
2019-05-26T19:13:54.462Z,5.27
2019-05-26T19:16:42.809Z,3.37
2019-05-26T19:19:27.028Z,3.90
2019-05-26T19:22:15.508Z,4.97
2019-05-26T19:25:06.766Z,4.43
2019-05-26T19:27:51.656Z,5.47
2019-05-26T19:30:35.799Z,6.17
2019-05-26T19:33:20.789Z,5.30
2019-05-26T19:36:09.342Z,4.75
2019-05-26T19:38:55.298Z,5.07
2019-05-26T19:41:39.892Z,4.53
2019-05-26T19:44:23.520Z,4.50
2019-05-26T19:47:07.995Z,5.90
2019-05-26T19:49:53.418Z,5.23
2019-05-26T19:52:37.489Z,4.87
2019-05-26T19:55:21.942Z,5.50
2019-05-26T19:58:06.054Z,5.20
2019-05-26T20:00:49.724Z,6.17
2019-05-26T20:03:33.496Z,5.73
2019-05-26T20:06:22.384Z,6.40
2019-05-26T20:09:07.615Z,6.53
2019-05-26T20:11:39.969Z,6.20
2019-05-26T20:14:25.054Z,6.90
2019-05-26T20:17:11.488Z,7.53
2019-05-26T20:19:56.081Z,7.07
2019-05-26T20:22:40.582Z,8.40
2019-05-26T20:25:13.179Z,8.60
2019-05-26T20:27:57.228Z,8.00
2019-05-26T20:30:40.859Z,8.87
2019-05-26T20:33:13.476Z,8.07
2019-05-26T20:35:57.681Z,12.83
2019-05-26T20:38:41.691Z,8.93
2019-05-26T20:41:26.625Z,10.23
2019-05-26T20:44:10.733Z,12.27
2019-05-26T20:46:54.840Z,9.63
2019-05-26T20:49:45.192Z,10.07
2019-05-26T20:52:24.647Z,12.10
2019-05-26T20:55:09.902Z,9.83
2019-05-26T20:57:57.679Z,10.05
2019-05-26T21:00:41.646Z,10.17
2019-05-26T21:03:25.612Z,9.77
2019-05-26T21:06:09.797Z,9.37
2019-05-26T21:08:54.020Z,9.27
2019-05-26T21:11:38.785Z,8.83
2019-05-26T21:14:22.670Z,8.00
2019-05-26T21:17:06.581Z,11.13
2019-05-26T21:19:50.401Z,7.43
2019-05-26T21:22:35.581Z,7.07
2019-05-26T21:28:23.295Z,9.27
2019-05-26T21:31:08.110Z,7.43
2019-05-26T21:33:52.454Z,8.00
2019-05-26T21:36:36.335Z,9.47
2019-05-26T21:39:20.714Z,7.67
2019-05-26T21:42:06.439Z,8.45
2019-05-26T21:44:50.560Z,8.67
2019-05-26T21:47:34.431Z,6.27
2019-05-26T21:50:18.425Z,7.07
2019-05-26T21:53:02.456Z,8.70
2019-05-26T21:55:46.688Z,7.80
2019-05-26T21:58:30.955Z,5.62
2019-05-26T22:01:14.526Z,7.00
2019-05-26T22:03:58.502Z,7.83
2019-05-26T22:06:50.564Z,4.80
2019-05-26T22:09:34.553Z,5.80
2019-05-26T22:12:19.016Z,5.63
2019-05-26T22:15:06.549Z,5.97
2019-05-26T22:17:52.022Z,6.22
2019-05-26T22:20:36.377Z,6.70
2019-05-26T22:23:20.947Z,5.00
2019-05-26T22:26:05.799Z,4.13
2019-05-26T22:28:49.439Z,4.33
2019-05-26T22:31:33.676Z,3.27
2019-05-26T22:34:17.852Z,3.83
2019-05-26T22:37:01.778Z,6.70
2019-05-26T22:39:46.221Z,4.53
2019-05-26T22:42:30.118Z,4.23
2019-05-26T22:45:14.483Z,4.07
2019-05-26T22:47:58.248Z,6.27
2019-05-26T22:50:42.484Z,3.13
2019-05-26T22:53:26.883Z,4.03
2019-05-26T22:56:13.797Z,3.93
2019-05-26T22:58:58.985Z,4.37
2019-05-26T23:01:43.304Z,4.03
2019-05-26T23:04:27.254Z,3.83
2019-05-26T23:07:10.852Z,4.55
2019-05-26T23:09:55.049Z,5.00
2019-05-26T23:12:39.732Z,3.80
2019-05-26T23:15:23.501Z,3.67
2019-05-26T23:18:08.506Z,3.63
2019-05-26T23:20:53.657Z,4.60
2019-05-26T23:23:37.219Z,3.63
2019-05-26T23:26:20.803Z,3.53
2019-05-26T23:29:05.375Z,3.83
2019-05-26T23:31:49.983Z,4.83
2019-05-26T23:34:36.052Z,3.92
2019-05-26T23:37:21.209Z,3.87
2019-05-26T23:40:06.552Z,4.17
2019-05-26T23:42:50.704Z,3.70
2019-05-26T23:45:34.436Z,3.33
2019-05-26T23:48:18.939Z,4.43
2019-05-26T23:51:03.051Z,3.10
2019-05-26T23:53:46.804Z,3.50
2019-05-26T23:56:30.778Z,3.67
2019-05-26T23:59:17.022Z,4.10
